Time;durP1;ratioP1;P1;durP2;ratioP2;P2;SDS_P1;SDS_P2;PMS_P1;PMS_P2;Temp;Humidity;BMP_temperature;BMP_pressure;BME280_temperature;BME280_humidity;BME280_pressure;Samples;Min_cycle;Max_cycle;Signal;HPM_P1;HPM_P2
2023/08/20 00:00:24;;;;;;;4.55;2.72;;;;;;;19.09;100.00;102048.84;5069421;28;19912;-37
2023/08/20 00:02:55;;;;;;;5.13;2.30;;;;;;;19.06;100.00;102050.16;5069699;28;20479;-37
2023/08/20 00:05:21;;;;;;;7.70;2.50;;;;;;;19.14;100.00;102057.13;5069885;28;20449;-37
2023/08/20 00:07:46;;;;;;;5.47;2.55;;;;;;;19.10;100.00;102050.50;5069919;28;20090;-37
2023/08/20 00:10:12;;;;;;;5.95;2.88;;;;;;;19.08;100.00;102041.69;5060266;28;20025;-37
2023/08/20 00:12:37;;;;;;;6.00;2.67;;;;;;;19.19;100.00;102041.53;5056744;28;20103;-37
2023/08/20 00:15:07;;;;;;;6.00;2.75;;;;;;;19.09;100.00;102035.97;5055864;28;20025;-37
2023/08/20 00:17:37;;;;;;;5.53;2.63;;;;;;;19.09;100.00;102044.19;5056320;28;20464;-37
2023/08/20 00:20:13;;;;;;;7.13;2.80;;;;;;;19.12;100.00;102043.66;5056191;28;20020;-37
2023/08/20 00:22:40;;;;;;;5.22;2.35;;;;;;;19.11;100.00;102035.69;5069911;28;20059;-37
2023/08/20 00:25:06;;;;;;;5.93;2.75;;;;;;;19.02;100.00;102040.81;5056008;28;20048;-37
2023/08/20 00:27:32;;;;;;;4.25;2.50;;;;;;;18.95;100.00;102032.78;5056063;28;20039;-37
2023/08/20 00:29:57;;;;;;;6.45;2.72;;;;;;;18.93;100.00;102025.91;5055758;28;20021;-37
2023/08/20 00:32:23;;;;;;;;;;;;;;;19.14;100.00;102030.53;5056317;28;20029;-37
2023/08/20 00:34:48;;;;;;;6.45;3.05;;;;;;;18.90;100.00;102029.19;5056069;28;19954;-37
2023/08/20 00:37:14;;;;;;;6.28;3.03;;;;;;;18.82;100.00;102044.16;5056074;28;20063;-37
2023/08/20 00:39:40;;;;;;;6.75;2.70;;;;;;;18.86;100.00;102050.78;5055752;28;20349;-37
2023/08/20 00:42:05;;;;;;;6.45;2.75;;;;;;;18.74;100.00;102050.94;5056128;28;20032;-37
2023/08/20 00:44:31;;;;;;;5.07;2.60;;;;;;;18.66;100.00;102056.00;5055463;28;20055;-37
2023/08/20 00:46:57;;;;;;;5.55;2.80;;;;;;;18.69;100.00;102056.34;5055488;28;20108;-37
2023/08/20 00:49:22;;;;;;;;;;;;;;;18.85;100.00;102064.75;5056116;28;20109;-37
2023/08/20 00:51:49;;;;;;;7.78;3.35;;;;;;;18.66;100.00;102059.56;5055448;28;19909;-37
2023/08/20 00:54:14;;;;;;;4.07;2.40;;;;;;;18.51;100.00;102048.44;5055321;28;20586;-37
2023/08/20 00:56:40;;;;;;;;;;;;;;;18.78;100.00;102067.66;5056809;28;20104;-37
2023/08/20 00:59:06;;;;;;;5.38;2.97;;;;;;;18.59;100.00;102078.09;5055869;28;19938;-37
2023/08/20 01:01:31;;;;;;;6.22;2.70;;;;;;;18.63;100.00;102084.72;5055168;28;20099;-37
2023/08/20 01:03:56;;;;;;;;;;;;;;;18.79;100.00;102085.78;5055550;28;20021;-37
2023/08/20 01:06:34;;;;;;;4.93;2.60;;;;;;;18.68;100.00;102095.78;5055015;28;19916;-37
2023/08/20 01:09:13;;;;;;;5.55;2.63;;;;;;;18.74;100.00;102103.00;5055459;28;20380;-37
2023/08/20 01:11:46;;;;;;;6.85;2.53;;;;;;;18.79;100.00;102104.97;5055226;28;20111;-37
2023/08/20 01:14:16;;;;;;;7.65;2.90;;;;;;;18.70;100.00;102099.09;5056036;28;20396;-37
2023/08/20 01:16:41;;;;;;;7.13;2.80;;;;;;;18.74;100.00;102113.97;5055439;28;20032;-37
2023/08/20 01:19:10;;;;;;;;;;;;;;;18.88;100.00;102114.38;5055422;28;20021;-37
2023/08/20 01:21:45;;;;;;;6.38;3.08;;;;;;;18.66;100.00;102106.13;5053846;28;19913;-37
2023/08/20 01:24:35;;;;;;;5.25;2.50;;;;;;;18.68;100.00;102109.47;5054723;28;20028;-37
2023/08/20 01:27:15;;;;;;;9.20;2.80;;;;;;;18.59;100.00;102101.91;5055759;28;20369;-37
2023/08/20 01:29:48;;;;;;;7.53;2.63;;;;;;;18.56;100.00;102100.53;5054679;28;20028;-37
2023/08/20 01:32:13;;;;;;;7.47;2.70;;;;;;;18.60;100.00;102109.09;5054625;28;20147;-37
2023/08/20 01:34:39;;;;;;;;;;;;;;;18.77;100.00;102098.91;5055248;28;20040;-37
2023/08/20 01:37:04;;;;;;;6.72;2.58;;;;;;;18.68;100.00;102104.00;5054447;28;19909;-37
2023/08/20 01:39:29;;;;;;;7.38;2.40;;;;;;;18.65;100.00;102099.00;5054864;28;20062;-37
2023/08/20 01:41:55;;;;;;;7.88;2.92;;;;;;;18.56;100.00;102086.00;5054655;28;20082;-37
2023/08/20 01:44:20;;;;;;;6.07;2.35;;;;;;;18.62;100.00;102096.78;5054575;28;20024;-37
2023/08/20 01:46:45;;;;;;;;;;;;;;;18.78;100.00;102108.78;5053779;28;20028;-37
2023/08/20 01:49:11;;;;;;;6.77;2.50;;;;;;;18.64;100.00;102105.59;5054517;28;19946;-37
2023/08/20 01:51:36;;;;;;;;;;;;;;;18.80;100.00;102119.50;5055456;28;20255;-37
2023/08/20 01:54:02;;;;;;;5.13;2.22;;;;;;;18.71;100.00;102113.63;5054698;28;20253;-37
2023/08/20 01:56:27;;;;;;;7.90;2.50;;;;;;;18.75;100.00;102123.81;5054611;28;20103;-37
2023/08/20 01:58:53;;;;;;;5.80;2.30;;;;;;;18.76;100.00;102120.00;5054433;28;20373;-37
2023/08/20 02:01:18;;;;;;;7.75;2.58;;;;;;;18.76;100.00;102128.22;5055163;28;20032;-37
2023/08/20 02:03:43;;;;;;;9.48;3.15;;;;;;;18.70;100.00;102134.72;5054200;28;20027;-37
2023/08/20 02:06:09;;;;;;;6.95;2.42;;;;;;;18.70;100.00;102133.91;5054459;28;20036;-37
2023/08/20 02:08:34;;;;;;;7.10;3.13;;;;;;;18.76;100.00;102141.09;5053860;28;20411;-37
2023/08/20 02:11:01;;;;;;;10.27;2.72;;;;;;;18.67;100.00;102145.31;5054463;28;20024;-37
2023/08/20 02:13:33;;;;;;;5.07;2.33;;;;;;;18.71;100.00;102144.59;5054010;28;20031;-37
2023/08/20 02:16:03;;;;;;;7.47;2.35;;;;;;;18.73;100.00;102144.34;5054214;28;20043;-37
2023/08/20 02:18:29;;;;;;;6.90;2.08;;;;;;;18.76;100.00;102139.19;5054698;28;20139;-37
2023/08/20 02:20:54;;;;;;;5.03;2.13;;;;;;;18.70;100.00;102139.38;5053912;28;20120;-37
2023/08/20 02:23:20;;;;;;;;;;;;;;;18.86;100.00;102141.22;5054051;28;20056;-37
2023/08/20 02:25:46;;;;;;;5.57;2.33;;;;;;;18.69;100.00;102124.84;5053840;28;19904;-37
2023/08/20 02:28:12;;;;;;;5.70;2.22;;;;;;;18.63;100.00;102131.28;5054349;28;20247;-37
2023/08/20 02:30:44;;;;;;;;;;;;;;;18.79;100.00;102135.13;5053902;28;20075;-37
2023/08/20 02:33:12;;;;;;;7.38;2.28;;;;;;;18.51;100.00;102136.91;5054354;28;19909;-37
2023/08/20 02:35:39;;;;;;;6.82;2.60;;;;;;;18.47;100.00;102141.22;5053998;28;20025;-37
2023/08/20 02:38:05;;;;;;;5.22;2.00;;;;;;;18.43;100.00;102141.97;5054264;28;20460;-37
2023/08/20 02:40:30;;;;;;;7.20;2.30;;;;;;;18.39;100.00;102147.13;5053707;28;20021;-37
2023/08/20 02:42:56;;;;;;;;;;;;;;;18.54;100.00;102146.50;5054317;28;20031;-37
2023/08/20 02:45:21;;;;;;;6.28;2.50;;;;;;;18.31;100.00;102149.47;5053642;28;20000;-37
2023/08/20 02:47:50;;;;;;;5.47;2.10;;;;;;;18.28;100.00;102132.47;5053652;28;20021;-37
2023/08/20 02:50:15;;;;;;;5.57;2.15;;;;;;;18.22;100.00;102128.00;5053994;28;20471;-37
2023/08/20 02:52:42;;;;;;;;;;;;;;;18.38;100.00;102137.25;5053970;28;20056;-37
2023/08/20 02:55:07;;;;;;;8.27;2.90;;;;;;;18.09;100.00;102122.84;5053465;28;19909;-37
2023/08/20 02:57:33;;;;;;;;;;;;;;;18.30;100.00;102134.09;5054147;28;20462;-37
2023/08/20 02:59:58;;;;;;;5.20;2.27;;;;;;;18.16;100.00;102131.75;5053825;28;20391;-37
2023/08/20 03:02:23;;;;;;;;;;;;;;;18.27;100.00;102132.72;5054751;28;20720;-44
2023/08/20 03:04:48;;;;;;;6.87;2.77;;;;;;;18.02;100.00;102127.69;5053698;28;19905;-37
2023/08/20 03:07:14;;;;;;;;;;;;;;;18.18;100.00;102123.28;5053908;28;20267;-37
2023/08/20 03:09:39;;;;;;;6.53;2.40;;;;;;;17.96;100.00;102117.75;5053028;28;20375;-37
2023/08/20 03:12:04;;;;;;;;;;;;;;;18.10;100.00;102112.72;5054151;28;20108;-37
2023/08/20 03:14:30;;;;;;;9.80;3.78;;;;;;;17.91;100.00;102113.03;5053265;28;19904;-37
2023/08/20 03:16:55;;;;;;;;;;;;;;;18.06;100.00;102117.06;5054025;28;20021;-37
2023/08/20 03:19:20;;;;;;;5.70;2.60;;;;;;;17.83;100.00;102118.91;5053217;28;20383;-37
2023/08/20 03:21:46;;;;;;;;;;;;;;;17.98;100.00;102115.56;5053980;28;20739;-37
2023/08/20 03:24:11;;;;;;;6.47;2.63;;;;;;;17.73;100.00;102114.09;5053245;28;20260;-37
2023/08/20 03:26:36;;;;;;;;;;;;;;;17.89;100.00;102112.41;5054260;28;20700;-37
2023/08/20 03:29:03;;;;;;;5.23;2.73;;;;;;;17.61;100.00;102121.50;5053164;28;19909;-37
2023/08/20 03:31:28;;;;;;;9.00;3.38;;;;;;;17.51;100.00;102111.19;5053727;28;20279;-37
2023/08/20 03:33:53;;;;;;;;;;;;;;;17.71;100.00;102116.22;5054132;28;20137;-37
2023/08/20 03:36:19;;;;;;;6.67;2.77;;;;;;;17.50;100.00;102108.72;5053150;28;19912;-37
2023/08/20 03:38:44;;;;;;;;;;;;;;;17.65;100.00;102111.72;5053678;28;20283;-37
2023/08/20 03:41:09;;;;;;;5.03;2.58;;;;;;;17.32;100.00;102095.25;5053074;28;19916;-37
2023/08/20 03:43:34;;;;;;;;;;;;;;;17.59;100.00;102115.44;5053799;28;20352;-37
2023/08/20 03:46:01;;;;;;;5.80;2.97;;;;;;;17.35;100.00;102112.00;5056345;28;20242;-37
2023/08/20 03:48:26;;;;;;;5.93;3.20;;;;;;;17.38;100.00;102121.66;5057078;28;20275;-37
2023/08/20 03:50:51;;;;;;;;;;;;;;;17.52;100.00;102128.47;5056929;28;20063;-37
2023/08/20 03:53:17;;;;;;;9.40;3.60;;;;;;;17.33;100.00;102121.56;5057008;28;20349;-37
2023/08/20 03:55:47;;;;;;;;;;;;;;;17.47;100.00;102131.94;5057072;28;20608;-37
2023/08/20 03:58:12;;;;;;;5.82;2.78;;;;;;;17.17;100.00;102126.69;5056160;28;19942;-37
2023/08/20 04:00:37;;;;;;;;;;;;;;;17.39;100.00;102139.69;5057304;28;20441;-37
2023/08/20 04:03:03;;;;;;;5.32;2.78;;;;;;;17.16;100.00;102135.16;5056600;28;20409;-37
2023/08/20 04:05:28;;;;;;;;;;;;;;;17.30;100.00;102136.53;5057227;28;20021;-37
2023/08/20 04:07:53;;;;;;;4.83;2.93;;;;;;;17.05;100.00;102127.84;5057272;28;19909;-37
2023/08/20 04:10:18;;;;;;;;;;;;;;;17.27;100.00;102141.66;5056812;28;20342;-37
2023/08/20 04:12:44;;;;;;;6.63;3.10;;;;;;;17.05;100.00;102147.78;5056406;28;19951;-37
2023/08/20 04:15:09;;;;;;;;;;;;;;;17.21;100.00;102149.75;5056767;28;20271;-37
2023/08/20 04:17:34;;;;;;;6.60;3.00;;;;;;;16.99;100.00;102146.03;5056232;28;19908;-37
2023/08/20 04:19:59;;;;;;;;;;;;;;;17.16;100.00;102146.09;5056970;28;20028;-37
2023/08/20 04:22:25;;;;;;;6.37;2.90;;;;;;;16.97;100.00;102148.16;5056166;28;20261;-37
2023/08/20 04:24:50;;;;;;;;;;;;;;;17.11;100.00;102157.75;5056571;28;20615;-37
2023/08/20 04:27:16;;;;;;;4.47;2.87;;;;;;;16.86;100.00;102138.94;5056739;28;19999;-37
2023/08/20 04:29:41;;;;;;;;;;;;;;;17.06;100.00;102146.72;5056516;28;20271;-37
2023/08/20 04:32:06;;;;;;;5.53;3.00;;;;;;;16.92;100.00;102143.44;5056306;28;20400;-37
2023/08/20 04:34:32;;;;;;;;;;;;;;;17.02;100.00;102151.00;5056351;28;20776;-37
2023/08/20 04:36:57;;;;;;;6.93;2.95;;;;;;;16.82;100.00;102148.69;5056270;28;19911;-36
2023/08/20 04:39:22;;;;;;;;;;;;;;;16.97;100.00;102146.25;5057053;28;20021;-37
2023/08/20 04:41:48;;;;;;;6.13;3.25;;;;;;;16.76;100.00;102136.00;5056433;28;20011;-37
2023/08/20 04:44:13;;;;;;;;;;;;;;;16.97;100.00;102137.25;5055916;28;20453;-37
2023/08/20 04:46:38;;;;;;;5.80;3.50;;;;;;;16.87;100.00;102139.75;5055770;28;19913;-37
2023/08/20 04:49:03;;;;;;;;;;;;;;;17.00;100.00;102147.69;5054850;28;20033;-37
2023/08/20 04:51:29;;;;;;;7.87;4.03;;;;;;;16.91;100.00;102147.22;5055640;28;19909;-37
2023/08/20 04:53:54;;;;;;;;;;;;;;;17.02;100.00;102145.53;5056271;28;20263;-37
2023/08/20 04:56:19;;;;;;;7.07;3.27;;;;;;;16.83;100.00;102147.59;5056019;28;19952;-37
2023/08/20 04:58:44;;;;;;;;;;;;;;;16.97;100.00;102151.72;5056169;28;20326;-37
2023/08/20 05:01:10;;;;;;;8.18;3.33;;;;;;;16.87;100.00;102153.41;5056331;28;19909;-37
2023/08/20 05:03:35;;;;;;;;;;;;;;;16.97;100.00;102153.63;5055879;28;20517;-37
2023/08/20 05:06:00;;;;;;;6.63;3.33;;;;;;;16.79;100.00;102148.31;5055653;28;20337;-37
2023/08/20 05:08:25;;;;;;;;;;;;;;;16.95;100.00;102156.63;5056300;28;20298;-37
2023/08/20 05:10:51;;;;;;;5.50;3.50;;;;;;;16.85;100.00;102158.31;5055295;28;19908;-37
2023/08/20 05:13:16;;;;;;;;;;;;;;;17.04;100.00;102165.28;5056283;28;20266;-37
2023/08/20 05:15:42;;;;;;;6.82;3.33;;;;;;;17.02;100.00;102172.88;5055204;28;19915;-37
2023/08/20 05:18:07;;;;;;;;;;;;;;;17.17;100.00;102170.44;5055883;28;20047;-37
2023/08/20 05:20:32;;;;;;;5.80;3.40;;;;;;;17.14;100.00;102170.94;5055366;28;19908;-37
2023/08/20 05:22:58;;;;;;;;;;;;;;;17.27;100.00;102180.75;5056040;28;20263;-37
2023/08/20 05:25:23;;;;;;;5.22;3.58;;;;;;;17.16;100.00;102174.25;5054986;28;20352;-37
2023/08/20 05:27:48;;;;;;;;;;;;;;;17.36;100.00;102178.47;5055361;28;20120;-37
2023/08/20 05:30:14;;;;;;;5.87;3.30;;;;;;;17.23;100.00;102166.75;5054944;28;19915;-37
2023/08/20 05:32:39;;;;;;;7.95;3.13;;;;;;;17.45;100.00;102187.94;5054904;28;20017;-37
2023/08/20 05:35:04;;;;;;;;;;;;;;;17.63;100.00;102195.94;5054989;28;20025;-37
2023/08/20 05:37:30;;;;;;;7.38;3.67;;;;;;;17.62;100.00;102188.81;5054334;28;19915;-38
2023/08/20 05:39:55;;;;;;;;;;;;;;;17.81;100.00;102192.16;5055629;28;20025;-37
2023/08/20 05:42:20;;;;;;;6.97;3.27;;;;;;;17.77;100.00;102191.03;5054925;28;20238;-37
2023/08/20 05:44:46;;;;;;;9.02;3.67;;;;;;;17.87;100.00;102177.53;5054891;28;20032;-37
2023/08/20 05:47:11;;;;;;;7.07;3.33;;;;;;;17.98;100.00;102181.25;5054672;28;20032;-37
2023/08/20 05:49:36;;;;;;;;;;;;;;;18.16;100.00;102188.41;5054956;28;20029;-37
2023/08/20 05:52:02;;;;;;;5.43;2.60;;;;;;;18.08;100.00;102186.06;5054749;28;20284;-37
2023/08/20 05:54:27;;;;;;;;;;;;;;;18.31;100.00;102185.91;5054568;28;20025;-38
2023/08/20 05:56:53;;;;;;;6.55;2.97;;;;;;;18.25;100.00;102193.22;5054355;28;19966;-38
2023/08/20 05:59:18;;;;;;;5.38;2.80;;;;;;;18.26;100.00;102189.38;5054661;28;20489;-37
2023/08/20 06:01:43;;;;;;;;;;;;;;;18.51;100.00;102190.84;5055020;28;20043;-37
2023/08/20 06:04:09;;;;;;;5.22;3.10;;;;;;;18.52;100.00;102192.50;5053912;28;19908;-38
2023/08/20 06:06:34;;;;;;;;;;;;;;;18.68;100.00;102191.66;5054309;28;20024;-37
2023/08/20 06:09:00;;;;;;;6.82;2.92;;;;;;;18.68;100.00;102183.44;5053941;28;19908;-37
2023/08/20 06:11:25;;;;;;;;;;;;;;;18.82;100.00;102185.84;5054535;28;20119;-38
2023/08/20 06:13:50;;;;;;;7.33;3.00;;;;;;;18.74;100.00;102181.63;5053764;28;19916;-37
2023/08/20 06:16:15;;;;;;;;;;;;;;;18.92;100.00;102185.97;5054216;28;20264;-37
2023/08/20 06:18:41;;;;;;;8.55;3.53;;;;;;;18.83;100.00;102182.00;5054186;28;19908;-37
2023/08/20 06:21:06;;;;;;;6.30;3.17;;;;;;;18.93;100.00;102185.69;5053719;28;20032;-37
2023/08/20 06:23:31;;;;;;;;;;;;;;;19.10;100.00;102182.09;5054056;28;20029;-37
2023/08/20 06:25:57;;;;;;;6.68;2.92;;;;;;;19.04;100.00;102192.16;5054161;28;19904;-37
2023/08/20 06:28:22;;;;;;;8.52;3.38;;;;;;;19.08;100.00;102182.34;5053913;28;20025;-37
2023/08/20 06:30:47;;;;;;;;;;;;;;;19.29;100.00;102192.47;5053937;28;20054;-37
2023/08/20 06:33:13;;;;;;;8.95;3.08;;;;;;;19.22;100.00;102182.75;5053773;28;19905;-37
2023/08/20 06:35:38;;;;;;;6.40;2.58;;;;;;;19.27;100.00;102191.88;5053487;28;20025;-37
2023/08/20 06:38:04;;;;;;;9.90;4.18;;;;;;;19.39;100.00;102193.66;5053659;28;20025;-37
2023/08/20 06:40:30;;;;;;;8.18;3.22;;;;;;;19.44;100.00;102200.03;5053346;28;20028;-37
2023/08/20 06:42:55;;;;;;;;;;;;;;;19.61;100.00;102194.47;5054420;28;20112;-37
2023/08/20 06:45:20;;;;;;;7.50;3.58;;;;;;;19.53;100.00;102193.00;5053381;28;19904;-37
2023/08/20 06:47:46;;;;;;;8.02;3.30;;;;;;;19.51;100.00;102191.59;5053897;28;20083;-37
2023/08/20 06:50:11;;;;;;;7.50;3.30;;;;;;;19.56;100.00;102186.16;5053528;28;20025;-37
2023/08/20 06:52:37;;;;;;;8.25;3.22;;;;;;;19.57;100.00;102182.34;5054136;28;20045;-37
2023/08/20 06:55:02;;;;;;;6.50;3.00;;;;;;;19.59;100.00;102193.88;5053515;28;20029;-37
2023/08/20 06:57:28;;;;;;;7.35;3.45;;;;;;;19.64;100.00;102193.97;5053813;28;20021;-37
2023/08/20 06:59:53;;;;;;;6.80;3.08;;;;;;;19.63;100.00;102188.75;5053969;28;20041;-37
2023/08/20 07:02:18;;;;;;;7.88;3.00;;;;;;;19.72;100.00;102190.75;5053769;28;20061;-37
2023/08/20 07:04:44;;;;;;;8.63;3.25;;;;;;;19.73;100.00;102195.16;5053475;28;20021;-37
2023/08/20 07:07:09;;;;;;;7.63;3.00;;;;;;;19.82;100.00;102194.69;5054006;28;20063;-37
2023/08/20 07:09:35;;;;;;;7.13;2.97;;;;;;;19.84;100.00;102195.25;5053025;28;20107;-37
2023/08/20 07:12:01;;;;;;;6.43;3.00;;;;;;;19.90;100.00;102205.19;5053921;28;20167;-37
2023/08/20 07:14:26;;;;;;;7.25;3.05;;;;;;;19.89;100.00;102204.34;5053571;28;20096;-37
2023/08/20 07:16:52;;;;;;;7.38;3.40;;;;;;;20.00;100.00;102214.31;5053392;28;20127;-37
2023/08/20 07:19:17;;;;;;;6.72;3.10;;;;;;;20.08;100.00;102212.22;5054072;28;20342;-38
2023/08/20 07:21:42;;;;;;;6.85;3.13;;;;;;;20.04;100.00;102209.16;5057895;28;20040;-38
2023/08/20 07:24:08;;;;;;;7.28;2.90;;;;;;;20.13;100.00;102213.06;5057481;28;20027;-38
2023/08/20 07:26:33;;;;;;;5.00;2.70;;;;;;;20.20;100.00;102202.69;5058077;28;20111;-37
2023/08/20 07:28:59;;;;;;;7.13;3.03;;;;;;;20.23;100.00;102206.84;5057488;28;20040;-37
2023/08/20 07:31:32;;;;;;;6.22;2.85;;;;;;;20.25;100.00;102205.50;5057700;28;20029;-37
2023/08/20 07:33:59;;;;;;;4.60;2.50;;;;;;;20.28;100.00;102201.38;5057441;28;20047;-37
2023/08/20 07:36:25;;;;;;;5.53;2.58;;;;;;;20.34;100.00;102208.56;5056807;28;20056;-37
2023/08/20 07:38:52;;;;;;;6.28;2.42;;;;;;;20.40;100.00;102206.66;5057206;28;20083;-37
2023/08/20 07:41:17;;;;;;;6.93;2.30;;;;;;;20.42;100.00;102213.56;5057844;28;20021;-37
2023/08/20 07:43:43;;;;;;;3.97;2.03;;;;;;;20.48;100.00;102209.78;5056908;28;20416;-37
2023/08/20 07:46:08;;;;;;;6.68;2.80;;;;;;;20.50;100.00;102206.81;5057388;28;20353;-37
2023/08/20 07:48:34;;;;;;;6.82;2.50;;;;;;;20.60;100.00;102219.78;5056815;28;20036;-37
2023/08/20 07:51:00;;;;;;;5.78;2.42;;;;;;;20.67;100.00;102223.94;5056811;28;20055;-37
2023/08/20 07:53:26;;;;;;;5.13;2.40;;;;;;;20.64;100.00;102218.94;5056422;28;20094;-37
2023/08/20 07:55:51;;;;;;;6.32;2.67;;;;;;;20.67;100.00;102221.19;5056985;28;20029;-37
2023/08/20 07:58:16;;;;;;;6.05;2.22;;;;;;;20.77;100.00;102226.75;5056756;28;20369;-37
2023/08/20 08:00:42;;;;;;;5.90;2.15;;;;;;;20.85;100.00;102230.91;5057114;28;20060;-37
2023/08/20 08:03:09;;;;;;;4.78;1.88;;;;;;;20.86;100.00;102226.25;5056572;28;20028;-37
2023/08/20 08:05:35;;;;;;;5.95;2.33;;;;;;;20.96;100.00;102235.38;5056156;28;20029;-37
2023/08/20 08:08:00;;;;;;;5.93;2.17;;;;;;;20.99;100.00;102212.03;5057035;28;20032;-37
2023/08/20 08:10:25;;;;;;;3.13;1.77;;;;;;;21.05;100.00;102222.78;5056760;28;20028;-37
2023/08/20 08:12:51;;;;;;;7.82;2.40;;;;;;;21.14;100.00;102228.59;5056156;28;20045;-37
2023/08/20 08:15:16;;;;;;;5.45;2.40;;;;;;;21.20;100.00;102219.25;5056309;28;20075;-37
2023/08/20 08:17:41;;;;;;;4.40;2.17;;;;;;;21.32;100.00;102225.38;5055995;28;20021;-37
2023/08/20 08:20:07;;;;;;;5.20;1.90;;;;;;;21.37;100.00;102243.00;5056002;28;20025;-37
2023/08/20 08:22:33;;;;;;;4.07;1.85;;;;;;;21.44;100.00;102233.41;5057043;28;20384;-38
2023/08/20 08:24:58;;;;;;;3.22;1.77;;;;;;;21.57;100.00;102234.81;5055892;28;20485;-38
2023/08/20 08:27:23;;;;;;;6.82;1.90;;;;;;;21.55;100.00;102226.00;5056129;28;20075;-37
2023/08/20 08:29:50;;;;;;;5.78;1.85;;;;;;;21.68;100.00;102244.75;5055993;28;20074;-37
2023/08/20 08:32:15;;;;;;;5.82;2.30;;;;;;;21.54;100.00;102238.94;5056266;28;20024;-37
2023/08/20 08:34:40;;;;;;;5.47;1.95;;;;;;;21.62;100.00;102226.59;5055722;28;20091;-38
2023/08/20 08:37:06;;;;;;;5.75;1.77;;;;;;;21.82;100.00;102234.88;5056305;28;20372;-37
2023/08/20 08:39:32;;;;;;;3.92;1.60;;;;;;;22.00;100.00;102246.44;5056177;28;20103;-37
2023/08/20 08:42:05;;;;;;;5.32;1.52;;;;;;;21.90;97.56;102229.91;5056206;28;20028;-37
2023/08/20 08:44:32;;;;;;;3.45;0.90;;;;;;;22.06;90.54;102248.94;5056061;28;20534;-38
2023/08/20 08:46:58;;;;;;;3.92;1.27;;;;;;;22.17;92.09;102240.72;5056302;28;20025;-38
2023/08/20 08:49:24;;;;;;;3.03;0.88;;;;;;;22.25;90.27;102248.41;5055426;28;20487;-38
2023/08/20 08:51:51;;;;;;;3.22;1.17;;;;;;;22.32;91.33;102243.47;5055637;28;20025;-39
2023/08/20 08:54:16;;;;;;;3.70;1.20;;;;;;;22.41;90.04;102236.28;5056055;28;20349;-37
2023/08/20 08:56:42;;;;;;;2.97;0.82;;;;;;;22.48;90.76;102247.03;5055269;28;20036;-37
2023/08/20 08:59:07;;;;;;;3.03;0.80;;;;;;;22.64;88.46;102245.91;5055724;28;20408;-38
2023/08/20 09:01:38;;;;;;;3.47;1.10;;;;;;;22.74;90.01;102234.88;5055719;28;20096;-37
2023/08/20 09:04:03;;;;;;;5.50;1.40;;;;;;;22.72;86.32;102239.81;5055983;28;20082;-38
2023/08/20 09:06:44;;;;;;;2.92;1.00;;;;;;;22.88;92.21;102238.69;5056197;28;20369;-38
2023/08/20 09:09:10;;;;;;;3.78;1.10;;;;;;;22.99;89.18;102239.50;5055850;28;20339;-38
2023/08/20 09:11:35;;;;;;;4.53;1.10;;;;;;;22.94;85.09;102244.22;5055817;28;20032;-38
2023/08/20 09:14:01;;;;;;;2.70;0.80;;;;;;;23.11;80.92;102255.75;5055167;28;20082;-37
2023/08/20 09:16:29;;;;;;;2.67;0.70;;;;;;;23.26;81.40;102246.56;5055178;28;20104;-38
2023/08/20 09:18:55;;;;;;;2.75;0.90;;;;;;;23.37;79.28;102237.94;5054957;28;20024;-38
2023/08/20 09:21:28;;;;;;;1.98;0.70;;;;;;;23.51;80.68;102246.44;5055348;28;20361;-38
2023/08/20 09:23:53;;;;;;;3.00;0.75;;;;;;;23.64;81.17;102250.56;5054824;28;20025;-38
2023/08/20 09:26:19;;;;;;;3.72;0.95;;;;;;;23.72;79.91;102247.19;5054701;28;20105;-38
2023/08/20 09:28:46;;;;;;;2.47;0.80;;;;;;;23.77;79.67;102247.16;5054638;28;20025;-38
2023/08/20 09:31:12;;;;;;;3.95;1.02;;;;;;;23.70;80.85;102245.81;5055178;28;20536;-38
2023/08/20 09:33:54;;;;;;;1.98;0.68;;;;;;;23.94;81.68;102249.53;5055394;28;20353;-38
2023/08/20 09:36:33;;;;;;;1.98;0.77;;;;;;;24.00;81.04;102244.78;5054963;28;20367;-38
2023/08/20 09:38:59;;;;;;;3.20;0.70;;;;;;;24.20;81.14;102247.38;5054607;28;20032;-38
2023/08/20 09:41:25;;;;;;;3.28;0.70;;;;;;;24.32;80.27;102247.03;5054529;28;20107;-38
2023/08/20 09:43:56;;;;;;;1.98;0.60;;;;;;;24.39;75.51;102245.56;5053891;28;20528;-38
2023/08/20 09:46:24;;;;;;;1.83;0.50;;;;;;;24.38;72.71;102243.13;5054335;28;20040;-38
2023/08/20 09:48:51;;;;;;;1.95;0.60;;;;;;;24.45;73.59;102246.38;5054540;28;20183;-37
2023/08/20 09:51:23;;;;;;;3.75;1.10;;;;;;;24.57;73.71;102241.28;5054376;28;20043;-37
2023/08/20 09:53:55;;;;;;;4.10;0.85;;;;;;;24.66;69.90;102249.75;5054469;28;20059;-38
2023/08/20 09:56:28;;;;;;;1.95;0.70;;;;;;;24.75;69.18;102250.78;5054170;28;20391;-38
2023/08/20 09:58:55;;;;;;;1.58;0.43;;;;;;;24.83;69.30;102241.00;5054795;28;20470;-38
2023/08/20 10:01:20;;;;;;;1.48;0.40;;;;;;;24.89;71.09;102232.38;5054309;28;20017;-38
2023/08/20 10:03:46;;;;;;;1.70;0.60;;;;;;;25.03;71.19;102237.16;5054864;28;20036;-38
2023/08/20 10:06:12;;;;;;;1.60;0.45;;;;;;;25.02;68.33;102239.13;5054840;28;20432;-37
2023/08/20 10:08:38;;;;;;;1.23;0.50;;;;;;;25.14;66.33;102238.75;5054789;28;20158;-38
2023/08/20 10:11:03;;;;;;;1.25;0.45;;;;;;;25.25;65.83;102240.25;5054111;28;20017;-38
2023/08/20 10:13:30;;;;;;;1.98;0.50;;;;;;;25.24;64.32;102224.78;5054972;28;20407;-38
2023/08/20 10:15:56;;;;;;;1.55;0.50;;;;;;;25.43;64.71;102244.19;5054085;28;20100;-38
2023/08/20 10:18:22;;;;;;;2.75;0.60;;;;;;;25.59;64.91;102247.56;5054012;28;20151;-38
2023/08/20 10:20:50;;;;;;;2.10;0.52;;;;;;;25.47;66.47;102244.38;5054220;28;20096;-38
2023/08/20 10:23:20;;;;;;;2.25;0.75;;;;;;;25.63;71.16;102234.75;5054786;28;20100;-37
2023/08/20 10:25:46;;;;;;;1.42;0.43;;;;;;;25.76;66.71;102239.56;5054193;28;20029;-38
2023/08/20 10:28:24;;;;;;;1.77;0.57;;;;;;;25.72;67.50;102235.72;5054666;28;20021;-38
2023/08/20 10:31:09;;;;;;;2.00;0.50;;;;;;;25.86;68.04;102242.16;5053819;28;20021;-38
2023/08/20 10:33:37;;;;;;;1.08;0.50;;;;;;;25.91;62.34;102239.34;5054617;28;20020;-38
2023/08/20 10:36:26;;;;;;;2.00;0.75;;;;;;;26.06;62.94;102241.03;5053758;28;20100;-38
2023/08/20 10:38:55;;;;;;;2.88;0.55;;;;;;;25.74;58.30;102232.66;5054492;28;20471;-38
2023/08/20 10:41:25;;;;;;;1.55;0.45;;;;;;;25.81;58.56;102239.47;5053651;28;20067;-38
2023/08/20 10:43:52;;;;;;;1.95;0.40;;;;;;;26.00;60.18;102235.88;5053463;28;20352;-38
2023/08/20 10:46:25;;;;;;;2.40;0.50;;;;;;;26.00;60.74;102231.16;5053284;28;20025;-38
2023/08/20 10:48:52;;;;;;;1.70;0.43;;;;;;;25.89;57.25;102238.00;5053320;28;20024;-38
2023/08/20 10:51:26;;;;;;;2.42;0.60;;;;;;;26.19;61.10;102239.44;5053802;28;20021;-38
2023/08/20 10:54:12;;;;;;;2.70;0.63;;;;;;;26.27;60.29;102237.94;5053720;28;20031;-38
2023/08/20 10:56:38;;;;;;;2.67;0.60;;;;;;;26.31;58.49;102239.78;5053549;28;20037;-38
2023/08/20 10:59:16;;;;;;;1.45;0.50;;;;;;;26.38;59.95;102233.84;5053444;28;20049;-38
2023/08/20 11:01:46;;;;;;;2.00;0.65;;;;;;;26.46;55.52;102241.50;5053758;28;20021;-38
2023/08/20 11:04:13;;;;;;;2.25;0.63;;;;;;;26.52;57.65;102248.59;5053996;28;20028;-38
2023/08/20 11:06:39;;;;;;;2.67;0.82;;;;;;;26.70;57.32;102239.38;5053416;28;20147;-38
2023/08/20 11:09:07;;;;;;;2.00;0.60;;;;;;;26.76;57.36;102239.28;5053369;28;20112;-38
2023/08/20 11:11:33;;;;;;;1.63;0.57;;;;;;;26.96;58.20;102239.69;5053994;28;20031;-38
2023/08/20 11:14:07;;;;;;;3.42;0.93;;;;;;;26.91;58.41;102241.75;5053892;28;20352;-38
2023/08/20 11:16:33;;;;;;;1.48;0.60;;;;;;;27.00;56.72;102237.13;5053618;28;20110;-38
2023/08/20 11:18:58;;;;;;;2.30;0.82;;;;;;;27.15;56.41;102238.78;5053295;28;20430;-38
2023/08/20 11:21:23;;;;;;;1.85;0.70;;;;;;;27.21;55.61;102226.44;5053001;28;20056;-38
2023/08/20 11:23:49;;;;;;;3.85;1.05;;;;;;;27.29;55.49;102228.50;5053750;28;20053;-38
2023/08/20 11:26:14;;;;;;;2.47;1.00;;;;;;;27.28;54.26;102232.41;5053805;28;20029;-38
2023/08/20 11:28:46;;;;;;;2.00;0.57;;;;;;;27.20;53.85;102231.19;5053166;28;20453;-38